sensor_id;sensor_type;location;lat;lon;timestamp;P1;durP1;ratioP1;P2;durP2;ratioP2
32333;SDS011;18810;53.040;8.850;2023-05-10T01:45:13;5.47;;;4.07;;
32333;SDS011;18810;53.040;8.850;2023-05-10T01:47:50;5.50;;;4.20;;
32333;SDS011;18810;53.040;8.850;2023-05-10T01:50:27;5.70;;;4.20;;
32333;SDS011;18810;53.040;8.850;2023-05-10T01:52:56;4.95;;;4.32;;
32333;SDS011;18810;53.040;8.850;2023-05-10T01:55:25;5.38;;;4.80;;
32333;SDS011;18810;53.040;8.850;2023-05-10T01:58:06;5.85;;;4.57;;
32333;SDS011;18810;53.040;8.850;2023-05-10T02:00:35;5.32;;;4.72;;
32333;SDS011;18810;53.040;8.850;2023-05-10T02:03:05;6.18;;;5.28;;
32333;SDS011;18810;53.040;8.850;2023-05-10T02:05:35;7.72;;;5.00;;
32333;SDS011;18810;53.040;8.850;2023-05-10T02:08:03;6.15;;;4.88;;
32333;SDS011;18810;53.040;8.850;2023-05-10T02:10:32;5.28;;;4.78;;
32333;SDS011;18810;53.040;8.850;2023-05-10T02:13:01;6.07;;;4.55;;
32333;SDS011;18810;53.040;8.850;2023-05-10T02:15:28;5.95;;;4.70;;
32333;SDS011;18810;53.040;8.850;2023-05-10T02:17:56;8.05;;;4.90;;
32333;SDS011;18810;53.040;8.850;2023-05-10T02:20:23;7.57;;;4.85;;
32333;SDS011;18810;53.040;8.850;2023-05-10T02:22:51;7.15;;;4.25;;
32333;SDS011;18810;53.040;8.850;2023-05-10T02:25:19;6.90;;;4.82;;
32333;SDS011;18810;53.040;8.850;2023-05-10T02:27:48;6.82;;;5.05;;
32333;SDS011;18810;53.040;8.850;2023-05-10T02:30:15;11.73;;;4.82;;
32333;SDS011;18810;53.040;8.850;2023-05-10T02:32:43;6.13;;;4.82;;
32333;SDS011;18810;53.040;8.850;2023-05-10T02:35:10;6.20;;;5.00;;
32333;SDS011;18810;53.040;8.850;2023-05-10T02:37:36;6.47;;;5.13;;
32333;SDS011;18810;53.040;8.850;2023-05-10T02:40:04;5.18;;;4.68;;
32333;SDS011;18810;53.040;8.850;2023-05-10T02:42:33;10.50;;;5.40;;
32333;SDS011;18810;53.040;8.850;2023-05-10T02:45:02;7.25;;;5.10;;
32333;SDS011;18810;53.040;8.850;2023-05-10T02:47:32;6.07;;;4.97;;
32333;SDS011;18810;53.040;8.850;2023-05-10T02:49:58;7.22;;;5.00;;
32333;SDS011;18810;53.040;8.850;2023-05-10T02:52:25;6.93;;;5.13;;
32333;SDS011;18810;53.040;8.850;2023-05-10T02:54:55;7.63;;;5.85;;
32333;SDS011;18810;53.040;8.850;2023-05-10T02:57:25;9.00;;;5.20;;
32333;SDS011;18810;53.040;8.850;2023-05-10T02:59:54;6.13;;;5.40;;
32333;SDS011;18810;53.040;8.850;2023-05-10T03:02:20;7.35;;;5.32;;
32333;SDS011;18810;53.040;8.850;2023-05-10T03:04:46;9.48;;;6.07;;
32333;SDS011;18810;53.040;8.850;2023-05-10T03:07:12;7.07;;;5.78;;
32333;SDS011;18810;53.040;8.850;2023-05-10T03:09:38;7.72;;;6.13;;
32333;SDS011;18810;53.040;8.850;2023-05-10T03:15:11;9.88;;;5.75;;
32333;SDS011;18810;53.040;8.850;2023-05-10T03:22:59;7.53;;;5.40;;
32333;SDS011;18810;53.040;8.850;2023-05-10T03:25:40;6.60;;;5.60;;
32333;SDS011;18810;53.040;8.850;2023-05-10T03:28:08;7.65;;;6.15;;
32333;SDS011;18810;53.040;8.850;2023-05-10T03:30:34;7.53;;;5.38;;
32333;SDS011;18810;53.040;8.850;2023-05-10T03:33:05;8.40;;;6.10;;
32333;SDS011;18810;53.040;8.850;2023-05-10T03:35:31;9.25;;;6.22;;
32333;SDS011;18810;53.040;8.850;2023-05-10T03:37:57;9.52;;;5.90;;
32333;SDS011;18810;53.040;8.850;2023-05-10T03:40:26;6.15;;;5.55;;
32333;SDS011;18810;53.040;8.850;2023-05-10T03:42:56;7.50;;;5.78;;
32333;SDS011;18810;53.040;8.850;2023-05-10T03:45:22;8.75;;;5.75;;
32333;SDS011;18810;53.040;8.850;2023-05-10T03:47:48;7.82;;;6.50;;
32333;SDS011;18810;53.040;8.850;2023-05-10T03:50:14;9.32;;;6.43;;
32333;SDS011;18810;53.040;8.850;2023-05-10T03:52:39;8.75;;;6.35;;
32333;SDS011;18810;53.040;8.850;2023-05-10T03:55:05;10.80;;;6.65;;
32333;SDS011;18810;53.040;8.850;2023-05-10T03:57:31;9.05;;;6.80;;
32333;SDS011;18810;53.040;8.850;2023-05-10T03:59:57;10.25;;;6.78;;
32333;SDS011;18810;53.040;8.850;2023-05-10T04:02:23;8.98;;;6.63;;
32333;SDS011;18810;53.040;8.850;2023-05-10T04:04:48;10.57;;;7.28;;
32333;SDS011;18810;53.040;8.850;2023-05-10T04:07:14;11.02;;;7.18;;
32333;SDS011;18810;53.040;8.850;2023-05-10T04:09:40;11.90;;;7.13;;
32333;SDS011;18810;53.040;8.850;2023-05-10T04:12:06;8.80;;;7.43;;
32333;SDS011;18810;53.040;8.850;2023-05-10T04:14:31;10.60;;;7.22;;
32333;SDS011;18810;53.040;8.850;2023-05-10T04:16:57;11.05;;;7.50;;
32333;SDS011;18810;53.040;8.850;2023-05-10T04:19:23;10.18;;;7.82;;
32333;SDS011;18810;53.040;8.850;2023-05-10T04:21:48;9.68;;;7.60;;
32333;SDS011;18810;53.040;8.850;2023-05-10T04:24:14;8.88;;;7.93;;
32333;SDS011;18810;53.040;8.850;2023-05-10T04:26:40;10.98;;;8.35;;
32333;SDS011;18810;53.040;8.850;2023-05-10T04:29:06;9.73;;;7.60;;
32333;SDS011;18810;53.040;8.850;2023-05-10T04:31:31;9.82;;;7.30;;
32333;SDS011;18810;53.040;8.850;2023-05-10T04:33:57;10.73;;;8.52;;
32333;SDS011;18810;53.040;8.850;2023-05-10T04:36:23;10.30;;;8.23;;
32333;SDS011;18810;53.040;8.850;2023-05-10T04:38:48;12.05;;;8.50;;
32333;SDS011;18810;53.040;8.850;2023-05-10T04:41:14;11.73;;;8.52;;
32333;SDS011;18810;53.040;8.850;2023-05-10T04:43:40;11.00;;;8.63;;
32333;SDS011;18810;53.040;8.850;2023-05-10T04:46:06;13.23;;;8.93;;
32333;SDS011;18810;53.040;8.850;2023-05-10T04:48:34;19.88;;;9.85;;
32333;SDS011;18810;53.040;8.850;2023-05-10T04:51:00;12.00;;;8.98;;
32333;SDS011;18810;53.040;8.850;2023-05-10T04:53:25;13.68;;;9.05;;
32333;SDS011;18810;53.040;8.850;2023-05-10T04:55:51;10.43;;;8.82;;
32333;SDS011;18810;53.040;8.850;2023-05-10T04:58:17;13.48;;;9.55;;
32333;SDS011;18810;53.040;8.850;2023-05-10T05:00:43;11.65;;;9.30;;
32333;SDS011;18810;53.040;8.850;2023-05-10T05:03:09;12.40;;;9.00;;
32333;SDS011;18810;53.040;8.850;2023-05-10T05:05:35;14.05;;;10.25;;
32333;SDS011;18810;53.040;8.850;2023-05-10T05:08:00;12.27;;;9.70;;
32333;SDS011;18810;53.040;8.850;2023-05-10T05:10:26;14.18;;;10.32;;
32333;SDS011;18810;53.040;8.850;2023-05-10T05:12:52;13.55;;;11.05;;
32333;SDS011;18810;53.040;8.850;2023-05-10T05:15:17;15.38;;;11.18;;
32333;SDS011;18810;53.040;8.850;2023-05-10T05:17:43;13.35;;;10.48;;
32333;SDS011;18810;53.040;8.850;2023-05-10T05:20:09;16.67;;;10.70;;
32333;SDS011;18810;53.040;8.850;2023-05-10T05:22:36;17.95;;;11.45;;
32333;SDS011;18810;53.040;8.850;2023-05-10T05:25:02;14.50;;;11.63;;
32333;SDS011;18810;53.040;8.850;2023-05-10T05:27:28;15.13;;;10.95;;
32333;SDS011;18810;53.040;8.850;2023-05-10T05:29:54;13.65;;;11.43;;
32333;SDS011;18810;53.040;8.850;2023-05-10T05:32:22;15.45;;;11.80;;
32333;SDS011;18810;53.040;8.850;2023-05-10T05:34:48;16.50;;;11.90;;
32333;SDS011;18810;53.040;8.850;2023-05-10T05:37:14;14.60;;;12.20;;
32333;SDS011;18810;53.040;8.850;2023-05-10T05:39:41;17.08;;;12.38;;
32333;SDS011;18810;53.040;8.850;2023-05-10T05:42:07;16.40;;;12.70;;
32333;SDS011;18810;53.040;8.850;2023-05-10T05:44:34;17.27;;;14.05;;
32333;SDS011;18810;53.040;8.850;2023-05-10T05:47:00;22.67;;;14.30;;
32333;SDS011;18810;53.040;8.850;2023-05-10T05:49:25;18.65;;;14.02;;
32333;SDS011;18810;53.040;8.850;2023-05-10T05:51:51;24.92;;;14.82;;
32333;SDS011;18810;53.040;8.850;2023-05-10T05:54:17;23.00;;;15.85;;
32333;SDS011;18810;53.040;8.850;2023-05-10T05:56:43;21.17;;;14.75;;
32333;SDS011;18810;53.040;8.850;2023-05-10T05:59:09;19.00;;;13.35;;
32333;SDS011;18810;53.040;8.850;2023-05-10T06:01:35;19.25;;;15.43;;
32333;SDS011;18810;53.040;8.850;2023-05-10T06:04:01;21.60;;;16.08;;
32333;SDS011;18810;53.040;8.850;2023-05-10T06:06:27;23.30;;;15.45;;
32333;SDS011;18810;53.040;8.850;2023-05-10T06:08:53;24.52;;;16.38;;
32333;SDS011;18810;53.040;8.850;2023-05-10T06:11:18;24.42;;;16.83;;
32333;SDS011;18810;53.040;8.850;2023-05-10T06:13:46;24.38;;;17.35;;
32333;SDS011;18810;53.040;8.850;2023-05-10T06:16:12;24.45;;;17.38;;
32333;SDS011;18810;53.040;8.850;2023-05-10T06:21:13;26.00;;;17.80;;
32333;SDS011;18810;53.040;8.850;2023-05-10T06:23:40;23.77;;;18.05;;
32333;SDS011;18810;53.040;8.850;2023-05-10T06:26:05;26.75;;;19.13;;
32333;SDS011;18810;53.040;8.850;2023-05-10T06:28:31;24.40;;;17.70;;
32333;SDS011;18810;53.040;8.850;2023-05-10T06:30:58;24.95;;;18.02;;
32333;SDS011;18810;53.040;8.850;2023-05-10T06:33:24;26.50;;;17.65;;
32333;SDS011;18810;53.040;8.850;2023-05-10T06:35:50;26.80;;;19.08;;
32333;SDS011;18810;53.040;8.850;2023-05-10T06:38:15;25.67;;;18.90;;
32333;SDS011;18810;53.040;8.850;2023-05-10T06:40:41;26.85;;;19.52;;
32333;SDS011;18810;53.040;8.850;2023-05-10T06:43:07;25.63;;;19.55;;
32333;SDS011;18810;53.040;8.850;2023-05-10T06:45:33;23.98;;;19.20;;
32333;SDS011;18810;53.040;8.850;2023-05-10T06:47:59;27.50;;;18.95;;
32333;SDS011;18810;53.040;8.850;2023-05-10T06:50:26;32.55;;;20.02;;
32333;SDS011;18810;53.040;8.850;2023-05-10T06:52:51;25.20;;;19.73;;
32333;SDS011;18810;53.040;8.850;2023-05-10T06:55:17;28.77;;;20.42;;
32333;SDS011;18810;53.040;8.850;2023-05-10T06:57:43;27.40;;;20.63;;
32333;SDS011;18810;53.040;8.850;2023-05-10T07:00:08;30.02;;;21.67;;
32333;SDS011;18810;53.040;8.850;2023-05-10T07:02:35;31.17;;;21.40;;
32333;SDS011;18810;53.040;8.850;2023-05-10T07:05:01;29.13;;;20.88;;
32333;SDS011;18810;53.040;8.850;2023-05-10T07:07:27;27.52;;;20.77;;
32333;SDS011;18810;53.040;8.850;2023-05-10T07:09:53;31.25;;;22.08;;
32333;SDS011;18810;53.040;8.850;2023-05-10T07:12:19;30.55;;;20.67;;
32333;SDS011;18810;53.040;8.850;2023-05-10T07:14:45;28.35;;;21.25;;
32333;SDS011;18810;53.040;8.850;2023-05-10T07:17:11;30.08;;;21.35;;
32333;SDS011;18810;53.040;8.850;2023-05-10T07:19:37;27.73;;;21.25;;
32333;SDS011;18810;53.040;8.850;2023-05-10T07:22:03;32.88;;;21.83;;
32333;SDS011;18810;53.040;8.850;2023-05-10T07:24:28;33.80;;;21.65;;
32333;SDS011;18810;53.040;8.850;2023-05-10T07:26:56;32.25;;;22.30;;
32333;SDS011;18810;53.040;8.850;2023-05-10T07:29:22;27.02;;;21.02;;
32333;SDS011;18810;53.040;8.850;2023-05-10T07:31:47;29.08;;;21.05;;
32333;SDS011;18810;53.040;8.850;2023-05-10T07:34:13;29.10;;;21.60;;
32333;SDS011;18810;53.040;8.850;2023-05-10T07:36:38;28.48;;;21.50;;
32333;SDS011;18810;53.040;8.850;2023-05-10T07:39:04;28.98;;;21.38;;
32333;SDS011;18810;53.040;8.850;2023-05-10T07:41:30;30.50;;;22.40;;
32333;SDS011;18810;53.040;8.850;2023-05-10T07:43:56;27.00;;;21.50;;
32333;SDS011;18810;53.040;8.850;2023-05-10T07:46:21;27.67;;;21.15;;
32333;SDS011;18810;53.040;8.850;2023-05-10T07:48:47;27.33;;;21.38;;
32333;SDS011;18810;53.040;8.850;2023-05-10T07:51:13;25.98;;;19.65;;
32333;SDS011;18810;53.040;8.850;2023-05-10T07:53:38;27.30;;;20.02;;
32333;SDS011;18810;53.040;8.850;2023-05-10T07:56:25;29.50;;;20.90;;
32333;SDS011;18810;53.040;8.850;2023-05-10T07:58:54;24.00;;;19.75;;
32333;SDS011;18810;53.040;8.850;2023-05-10T08:01:21;25.90;;;18.33;;
32333;SDS011;18810;53.040;8.850;2023-05-10T08:03:47;21.95;;;16.80;;
32333;SDS011;18810;53.040;8.850;2023-05-10T08:06:13;22.42;;;16.77;;
32333;SDS011;18810;53.040;8.850;2023-05-10T08:08:40;16.85;;;13.38;;
32333;SDS011;18810;53.040;8.850;2023-05-10T08:11:06;16.02;;;13.23;;
32333;SDS011;18810;53.040;8.850;2023-05-10T08:13:32;17.40;;;12.50;;
32333;SDS011;18810;53.040;8.850;2023-05-10T08:15:58;16.20;;;11.27;;
32333;SDS011;18810;53.040;8.850;2023-05-10T08:18:24;14.15;;;9.52;;
32333;SDS011;18810;53.040;8.850;2023-05-10T08:20:49;12.85;;;8.77;;
32333;SDS011;18810;53.040;8.850;2023-05-10T08:23:15;11.10;;;7.47;;
32333;SDS011;18810;53.040;8.850;2023-05-10T08:25:41;10.52;;;7.75;;
32333;SDS011;18810;53.040;8.850;2023-05-10T08:28:07;11.13;;;7.40;;
32333;SDS011;18810;53.040;8.850;2023-05-10T08:30:32;13.20;;;7.28;;
32333;SDS011;18810;53.040;8.850;2023-05-10T08:32:58;8.82;;;6.68;;
32333;SDS011;18810;53.040;8.850;2023-05-10T08:35:24;10.77;;;8.23;;
32333;SDS011;18810;53.040;8.850;2023-05-10T08:37:50;10.93;;;8.55;;
32333;SDS011;18810;53.040;8.850;2023-05-10T08:40:16;10.35;;;9.23;;
32333;SDS011;18810;53.040;8.850;2023-05-10T08:42:48;11.80;;;8.70;;
32333;SDS011;18810;53.040;8.850;2023-05-10T08:45:21;11.27;;;10.07;;
32333;SDS011;18810;53.040;8.850;2023-05-10T08:47:49;10.40;;;9.30;;
32333;SDS011;18810;53.040;8.850;2023-05-10T08:50:17;11.10;;;10.00;;
32333;SDS011;18810;53.040;8.850;2023-05-10T08:52:45;10.13;;;9.18;;
32333;SDS011;18810;53.040;8.850;2023-05-10T08:55:13;10.70;;;9.60;;
32333;SDS011;18810;53.040;8.850;2023-05-10T08:57:40;9.70;;;8.48;;
32333;SDS011;18810;53.040;8.850;2023-05-10T09:00:06;6.15;;;5.65;;
32333;SDS011;18810;53.040;8.850;2023-05-10T09:02:33;6.80;;;6.15;;
32333;SDS011;18810;53.040;8.850;2023-05-10T09:05:00;6.70;;;5.97;;
32333;SDS011;18810;53.040;8.850;2023-05-10T09:07:26;7.40;;;5.50;;
32333;SDS011;18810;53.040;8.850;2023-05-10T09:09:52;5.93;;;5.32;;
32333;SDS011;18810;53.040;8.850;2023-05-10T09:12:19;4.50;;;4.10;;
32333;SDS011;18810;53.040;8.850;2023-05-10T09:14:45;5.07;;;4.22;;
32333;SDS011;18810;53.040;8.850;2023-05-10T09:17:11;4.40;;;4.03;;
32333;SDS011;18810;53.040;8.850;2023-05-10T09:19:37;4.45;;;4.05;;
32333;SDS011;18810;53.040;8.850;2023-05-10T09:22:03;4.95;;;4.20;;
32333;SDS011;18810;53.040;8.850;2023-05-10T09:24:29;6.80;;;5.07;;
32333;SDS011;18810;53.040;8.850;2023-05-10T09:26:56;6.38;;;5.47;;
32333;SDS011;18810;53.040;8.850;2023-05-10T09:29:23;6.80;;;6.07;;
32333;SDS011;18810;53.040;8.850;2023-05-10T09:31:52;5.55;;;5.05;;
32333;SDS011;18810;53.040;8.850;2023-05-10T09:34:28;6.43;;;5.07;;
32333;SDS011;18810;53.040;8.850;2023-05-10T09:36:58;7.40;;;5.38;;
32333;SDS011;18810;53.040;8.850;2023-05-10T09:39:38;5.88;;;4.93;;
32333;SDS011;18810;53.040;8.850;2023-05-10T09:42:05;8.02;;;5.70;;
32333;SDS011;18810;53.040;8.850;2023-05-10T09:44:32;6.85;;;5.70;;
32333;SDS011;18810;53.040;8.850;2023-05-10T09:46:59;7.32;;;5.72;;
32333;SDS011;18810;53.040;8.850;2023-05-10T09:49:26;8.02;;;6.05;;
32333;SDS011;18810;53.040;8.850;2023-05-10T09:52:02;7.03;;;5.80;;
32333;SDS011;18810;53.040;8.850;2023-05-10T09:54:29;6.00;;;5.35;;
32333;SDS011;18810;53.040;8.850;2023-05-10T09:56:55;6.88;;;6.18;;
32333;SDS011;18810;53.040;8.850;2023-05-10T09:59:21;7.63;;;5.85;;
32333;SDS011;18810;53.040;8.850;2023-05-10T10:01:50;10.15;;;6.60;;
32333;SDS011;18810;53.040;8.850;2023-05-10T10:04:16;7.68;;;6.60;;
32333;SDS011;18810;53.040;8.850;2023-05-10T10:06:42;8.60;;;7.07;;
32333;SDS011;18810;53.040;8.850;2023-05-10T10:09:08;9.40;;;6.88;;
32333;SDS011;18810;53.040;8.850;2023-05-10T10:11:38;8.23;;;6.93;;
32333;SDS011;18810;53.040;8.850;2023-05-10T10:14:04;8.20;;;6.60;;
32333;SDS011;18810;53.040;8.850;2023-05-10T10:16:30;8.90;;;6.47;;
32333;SDS011;18810;53.040;8.850;2023-05-10T10:18:57;6.82;;;5.38;;
32333;SDS011;18810;53.040;8.850;2023-05-10T10:21:23;8.23;;;5.63;;
32333;SDS011;18810;53.040;8.850;2023-05-10T10:23:49;6.25;;;5.32;;
32333;SDS011;18810;53.040;8.850;2023-05-10T10:26:17;6.40;;;4.88;;
32333;SDS011;18810;53.040;8.850;2023-05-10T10:34:00;5.80;;;4.10;;
32333;SDS011;18810;53.040;8.850;2023-05-10T10:36:47;4.05;;;3.65;;
32333;SDS011;18810;53.040;8.850;2023-05-10T10:39:13;4.30;;;3.53;;
32333;SDS011;18810;53.040;8.850;2023-05-10T10:41:40;5.55;;;3.53;;
32333;SDS011;18810;53.040;8.850;2023-05-10T11:02:48;3.75;;;3.20;;
32333;SDS011;18810;53.040;8.850;2023-05-10T11:07:54;4.53;;;3.28;;
32333;SDS011;18810;53.040;8.850;2023-05-10T11:10:24;3.83;;;3.43;;
32333;SDS011;18810;53.040;8.850;2023-05-10T11:12:58;3.60;;;3.15;;
32333;SDS011;18810;53.040;8.850;2023-05-10T11:17:59;5.05;;;3.40;;
32333;SDS011;18810;53.040;8.850;2023-05-10T11:20:41;3.92;;;3.55;;
32333;SDS011;18810;53.040;8.850;2023-05-10T11:23:13;3.25;;;2.95;;
32333;SDS011;18810;53.040;8.850;2023-05-10T11:25:43;5.60;;;3.53;;
32333;SDS011;18810;53.040;8.850;2023-05-10T11:28:10;3.60;;;3.30;;
32333;SDS011;18810;53.040;8.850;2023-05-10T11:30:38;4.90;;;3.55;;
32333;SDS011;18810;53.040;8.850;2023-05-10T11:33:05;4.00;;;3.60;;
32333;SDS011;18810;53.040;8.850;2023-05-10T11:35:36;5.30;;;2.60;;
32333;SDS011;18810;53.040;8.850;2023-05-10T11:38:07;2.88;;;2.15;;
32333;SDS011;18810;53.040;8.850;2023-05-10T11:40:34;2.05;;;1.92;;
32333;SDS011;18810;53.040;8.850;2023-05-10T11:43:00;3.42;;;2.70;;
32333;SDS011;18810;53.040;8.850;2023-05-10T11:45:26;3.25;;;2.83;;
32333;SDS011;18810;53.040;8.850;2023-05-10T11:47:54;3.28;;;2.88;;
32333;SDS011;18810;53.040;8.850;2023-05-10T11:50:23;3.58;;;2.63;;
32333;SDS011;18810;53.040;8.850;2023-05-10T11:52:53;2.97;;;2.28;;
32333;SDS011;18810;53.040;8.850;2023-05-10T11:55:23;2.63;;;2.40;;
32333;SDS011;18810;53.040;8.850;2023-05-10T11:58:00;2.83;;;2.25;;
32333;SDS011;18810;53.040;8.850;2023-05-10T12:00:27;2.67;;;2.47;;
32333;SDS011;18810;53.040;8.850;2023-05-10T12:02:53;2.65;;;2.45;;
32333;SDS011;18810;53.040;8.850;2023-05-10T12:05:19;1.13;;;1.08;;
32333;SDS011;18810;53.040;8.850;2023-05-10T12:07:45;0.98;;;0.80;;
32333;SDS011;18810;53.040;8.850;2023-05-10T12:10:11;1.02;;;0.70;;
32333;SDS011;18810;53.040;8.850;2023-05-10T12:12:44;0.70;;;0.70;;
32333;SDS011;18810;53.040;8.850;2023-05-10T12:15:19;0.80;;;0.80;;
32333;SDS011;18810;53.040;8.850;2023-05-10T12:17:47;0.90;;;0.70;;
32333;SDS011;18810;53.040;8.850;2023-05-10T12:20:23;0.80;;;0.80;;
32333;SDS011;18810;53.040;8.850;2023-05-10T12:22:53;0.90;;;0.90;;
32333;SDS011;18810;53.040;8.850;2023-05-10T12:25:21;7.95;;;3.38;;
32333;SDS011;18810;53.040;8.850;2023-05-10T12:27:52;1.63;;;1.25;;
32333;SDS011;18810;53.040;8.850;2023-05-10T12:30:25;1.40;;;1.30;;
32333;SDS011;18810;53.040;8.850;2023-05-10T12:32:53;1.50;;;1.38;;
32333;SDS011;18810;53.040;8.850;2023-05-10T12:35:24;1.88;;;0.95;;
32333;SDS011;18810;53.040;8.850;2023-05-10T12:37:52;4.10;;;0.98;;
32333;SDS011;18810;53.040;8.850;2023-05-10T12:40:18;0.70;;;0.70;;
32333;SDS011;18810;53.040;8.850;2023-05-10T12:42:43;0.60;;;0.60;;
32333;SDS011;18810;53.040;8.850;2023-05-10T12:45:13;0.63;;;0.63;;
32333;SDS011;18810;53.040;8.850;2023-05-10T12:47:39;0.50;;;0.50;;
32333;SDS011;18810;53.040;8.850;2023-05-10T12:50:05;1.55;;;0.88;;
32333;SDS011;18810;53.040;8.850;2023-05-10T12:52:31;0.77;;;0.77;;
32333;SDS011;18810;53.040;8.850;2023-05-10T12:54:57;1.00;;;1.00;;
32333;SDS011;18810;53.040;8.850;2023-05-10T12:57:24;1.65;;;1.25;;
32333;SDS011;18810;53.040;8.850;2023-05-10T12:59:50;1.23;;;1.02;;
32333;SDS011;18810;53.040;8.850;2023-05-10T13:02:15;1.40;;;1.30;;
32333;SDS011;18810;53.040;8.850;2023-05-10T13:04:46;1.70;;;1.60;;
32333;SDS011;18810;53.040;8.850;2023-05-10T13:07:12;2.35;;;1.60;;
32333;SDS011;18810;53.040;8.850;2023-05-10T13:09:37;2.17;;;1.40;;
32333;SDS011;18810;53.040;8.850;2023-05-10T13:12:03;1.40;;;1.30;;
32333;SDS011;18810;53.040;8.850;2023-05-10T13:14:29;1.35;;;1.25;;
32333;SDS011;18810;53.040;8.850;2023-05-10T13:16:56;1.55;;;1.25;;
32333;SDS011;18810;53.040;8.850;2023-05-10T13:19:21;1.60;;;1.50;;
32333;SDS011;18810;53.040;8.850;2023-05-10T13:21:47;2.10;;;1.90;;
32333;SDS011;18810;53.040;8.850;2023-05-10T13:24:13;1.80;;;1.70;;
32333;SDS011;18810;53.040;8.850;2023-05-10T13:26:39;1.52;;;1.42;;
32333;SDS011;18810;53.040;8.850;2023-05-10T13:29:05;1.90;;;1.80;;
32333;SDS011;18810;53.040;8.850;2023-05-10T13:31:31;2.00;;;1.77;;
32333;SDS011;18810;53.040;8.850;2023-05-10T13:33:57;1.80;;;1.70;;
32333;SDS011;18810;53.040;8.850;2023-05-10T13:36:22;1.85;;;1.70;;
32333;SDS011;18810;53.040;8.850;2023-05-10T13:38:48;1.67;;;1.58;;
32333;SDS011;18810;53.040;8.850;2023-05-10T13:41:14;2.17;;;1.85;;
32333;SDS011;18810;53.040;8.850;2023-05-10T13:43:39;2.08;;;1.90;;
32333;SDS011;18810;53.040;8.850;2023-05-10T13:46:05;2.40;;;2.20;;
32333;SDS011;18810;53.040;8.850;2023-05-10T13:48:31;2.20;;;2.10;;
32333;SDS011;18810;53.040;8.850;2023-05-10T13:50:56;3.67;;;2.78;;
32333;SDS011;18810;53.040;8.850;2023-05-10T13:53:22;2.60;;;2.08;;
32333;SDS011;18810;53.040;8.850;2023-05-10T13:55:48;2.83;;;2.42;;
32333;SDS011;18810;53.040;8.850;2023-05-10T13:58:14;2.38;;;2.17;;
32333;SDS011;18810;53.040;8.850;2023-05-10T14:00:40;2.53;;;2.33;;
32333;SDS011;18810;53.040;8.850;2023-05-10T14:03:06;2.40;;;2.20;;
32333;SDS011;18810;53.040;8.850;2023-05-10T14:05:33;2.00;;;1.90;;
32333;SDS011;18810;53.040;8.850;2023-05-10T14:07:59;2.25;;;2.05;;
32333;SDS011;18810;53.040;8.850;2023-05-10T14:10:25;2.30;;;2.10;;
32333;SDS011;18810;53.040;8.850;2023-05-10T14:12:50;2.38;;;2.17;;
32333;SDS011;18810;53.040;8.850;2023-05-10T14:15:16;1.92;;;1.83;;
32333;SDS011;18810;53.040;8.850;2023-05-10T14:17:43;2.00;;;1.90;;
32333;SDS011;18810;53.040;8.850;2023-05-10T14:20:08;3.22;;;2.40;;
32333;SDS011;18810;53.040;8.850;2023-05-10T14:22:34;2.30;;;2.20;;
32333;SDS011;18810;53.040;8.850;2023-05-10T14:25:00;2.80;;;2.55;;
32333;SDS011;18810;53.040;8.850;2023-05-10T14:27:26;2.58;;;2.38;;
32333;SDS011;18810;53.040;8.850;2023-05-10T14:29:51;3.03;;;2.25;;
32333;SDS011;18810;53.040;8.850;2023-05-10T14:32:18;2.50;;;2.28;;
32333;SDS011;18810;53.040;8.850;2023-05-10T14:34:43;2.53;;;2.20;;
32333;SDS011;18810;53.040;8.850;2023-05-10T14:37:09;2.42;;;2.20;;
32333;SDS011;18810;53.040;8.850;2023-05-10T14:39:36;1.92;;;1.83;;
32333;SDS011;18810;53.040;8.850;2023-05-10T14:42:02;2.30;;;2.20;;
32333;SDS011;18810;53.040;8.850;2023-05-10T14:44:28;2.95;;;2.22;;
32333;SDS011;18810;53.040;8.850;2023-05-10T14:46:54;2.10;;;2.00;;
32333;SDS011;18810;53.040;8.850;2023-05-10T14:49:20;2.75;;;2.13;;
32333;SDS011;18810;53.040;8.850;2023-05-10T14:51:47;2.75;;;2.00;;
32333;SDS011;18810;53.040;8.850;2023-05-10T14:54:13;2.25;;;2.05;;
32333;SDS011;18810;53.040;8.850;2023-05-10T14:56:39;1.67;;;1.58;;
32333;SDS011;18810;53.040;8.850;2023-05-10T14:59:06;1.70;;;1.60;;
32333;SDS011;18810;53.040;8.850;2023-05-10T15:01:32;1.90;;;1.70;;
32333;SDS011;18810;53.040;8.850;2023-05-10T15:04:00;1.60;;;1.50;;
32333;SDS011;18810;53.040;8.850;2023-05-10T15:06:35;1.90;;;1.80;;
32333;SDS011;18810;53.040;8.850;2023-05-10T15:09:01;1.88;;;1.70;;
32333;SDS011;18810;53.040;8.850;2023-05-10T15:11:31;2.47;;;2.28;;
32333;SDS011;18810;53.040;8.850;2023-05-10T15:13:57;2.60;;;2.40;;
32333;SDS011;18810;53.040;8.850;2023-05-10T15:16:22;2.30;;;2.10;;
32333;SDS011;18810;53.040;8.850;2023-05-10T15:18:48;2.03;;;1.80;;
32333;SDS011;18810;53.040;8.850;2023-05-10T15:21:14;1.98;;;1.88;;
32333;SDS011;18810;53.040;8.850;2023-05-10T15:23:40;2.13;;;1.92;;
32333;SDS011;18810;53.040;8.850;2023-05-10T15:26:05;2.15;;;2.00;;
32333;SDS011;18810;53.040;8.850;2023-05-10T15:28:31;2.42;;;2.22;;
32333;SDS011;18810;53.040;8.850;2023-05-10T15:30:56;2.08;;;1.98;;
32333;SDS011;18810;53.040;8.850;2023-05-10T15:33:22;2.60;;;2.40;;
32333;SDS011;18810;53.040;8.850;2023-05-10T15:35:48;3.60;;;3.30;;
32333;SDS011;18810;53.040;8.850;2023-05-10T15:38:14;2.55;;;2.35;;
32333;SDS011;18810;53.040;8.850;2023-05-10T15:40:39;1.65;;;1.52;;
32333;SDS011;18810;53.040;8.850;2023-05-10T15:43:05;1.60;;;1.48;;
32333;SDS011;18810;53.040;8.850;2023-05-10T15:45:31;3.00;;;1.83;;
32333;SDS011;18810;53.040;8.850;2023-05-10T15:47:57;1.88;;;1.70;;
32333;SDS011;18810;53.040;8.850;2023-05-10T15:50:24;2.13;;;2.00;;
32333;SDS011;18810;53.040;8.850;2023-05-10T15:52:50;2.78;;;2.22;;
32333;SDS011;18810;53.040;8.850;2023-05-10T15:55:15;2.10;;;1.77;;
32333;SDS011;18810;53.040;8.850;2023-05-10T15:57:42;2.10;;;1.90;;
32333;SDS011;18810;53.040;8.850;2023-05-10T16:00:08;1.92;;;1.50;;
32333;SDS011;18810;53.040;8.850;2023-05-10T16:02:35;1.50;;;1.40;;
32333;SDS011;18810;53.040;8.850;2023-05-10T16:05:01;1.60;;;1.50;;
32333;SDS011;18810;53.040;8.850;2023-05-10T16:07:27;2.17;;;1.60;;
32333;SDS011;18810;53.040;8.850;2023-05-10T16:09:53;1.95;;;1.58;;
32333;SDS011;18810;53.040;8.850;2023-05-10T16:12:18;1.45;;;1.25;;
32333;SDS011;18810;53.040;8.850;2023-05-10T16:14:44;2.05;;;1.55;;
32333;SDS011;18810;53.040;8.850;2023-05-10T16:17:10;2.72;;;1.50;;
32333;SDS011;18810;53.040;8.850;2023-05-10T16:19:36;4.00;;;1.80;;
32333;SDS011;18810;53.040;8.850;2023-05-10T16:22:02;2.80;;;1.58;;
32333;SDS011;18810;53.040;8.850;2023-05-10T16:24:27;1.38;;;1.27;;
32333;SDS011;18810;53.040;8.850;2023-05-10T16:26:54;1.50;;;1.40;;
32333;SDS011;18810;53.040;8.850;2023-05-10T16:29:19;1.60;;;1.50;;
32333;SDS011;18810;53.040;8.850;2023-05-10T16:31:45;2.33;;;1.75;;
32333;SDS011;18810;53.040;8.850;2023-05-10T16:34:10;1.48;;;1.33;;
32333;SDS011;18810;53.040;8.850;2023-05-10T16:36:36;1.40;;;1.30;;
32333;SDS011;18810;53.040;8.850;2023-05-10T16:39:02;2.80;;;1.58;;
32333;SDS011;18810;53.040;8.850;2023-05-10T16:41:28;1.70;;;1.60;;
32333;SDS011;18810;53.040;8.850;2023-05-10T16:43:56;1.70;;;1.60;;
32333;SDS011;18810;53.040;8.850;2023-05-10T16:46:22;2.08;;;1.38;;
32333;SDS011;18810;53.040;8.850;2023-05-10T16:48:47;2.22;;;1.67;;
32333;SDS011;18810;53.040;8.850;2023-05-10T16:51:13;1.77;;;1.67;;
32333;SDS011;18810;53.040;8.850;2023-05-10T16:53:39;1.90;;;1.80;;
32333;SDS011;18810;53.040;8.850;2023-05-10T16:56:04;3.42;;;1.88;;
32333;SDS011;18810;53.040;8.850;2023-05-10T16:58:30;2.10;;;2.00;;
32333;SDS011;18810;53.040;8.850;2023-05-10T17:00:56;2.55;;;2.35;;
32333;SDS011;18810;53.040;8.850;2023-05-10T17:03:21;5.47;;;2.50;;